Time;durP1;ratioP1;P1;durP2;ratioP2;P2;SDS_P1;SDS_P2;PMS_P1;PMS_P2;Temp;Humidity;BMP_temperature;BMP_pressure;BME280_temperature;BME280_humidity;BME280_pressure;Samples;Min_cycle;Max_cycle;Signal;HPM_P1;HPM_P2
2023/02/23 00:00:27;;;;;;;44.67;23.57;;;;;;;;;;767895;182;918854;-70
2023/02/23 00:02:54;;;;;;;43.37;24.37;;;;;;;;;;760894;184;839823;-73
2023/02/23 00:05:18;;;;;;;39.80;24.50;;;;;;;;;;761851;183;906530;-74
2023/02/23 00:07:44;;;;;;;44.27;22.27;;;;;;;;;;767595;184;918417;-74
2023/02/23 00:10:12;;;;;;;37.70;22.70;;;;;;;;;;764969;181;1127116;-73
2023/02/23 00:12:38;;;;;;;42.83;22.20;;;;;;;;;;772140;181;937488;-69
2023/02/23 00:15:04;;;;;;;49.47;28.03;;;;;;;;;;775591;181;919241;-69
2023/02/23 00:17:32;;;;;;;60.97;32.70;;;;;;;;;;763748;182;919538;-70
2023/02/23 00:19:57;;;;;;;60.90;32.87;;;;;;;;;;766839;181;925310;-69
2023/02/23 00:22:22;;;;;;;49.23;27.17;;;;;;;;;;772651;180;920592;-72
2023/02/23 00:24:49;;;;;;;70.80;29.00;;;;;;;;;;773279;181;910933;-68
2023/02/23 00:27:17;;;;;;;87.33;41.93;;;;;;;;;;765787;181;919839;-73
2023/02/23 00:29:39;;;;;;;67.33;34.20;;;;;;;;;;770415;180;918366;-69
2023/02/23 00:32:05;;;;;;;45.53;25.90;;;;;;;;;;768003;183;920650;-69
2023/02/23 00:34:31;;;;;;;47.70;25.20;;;;;;;;;;763531;183;919513;-72
2023/02/23 00:36:57;;;;;;;57.07;31.80;;;;;;;;;;762627;182;869766;-69
2023/02/23 00:39:27;;;;;;;50.47;26.83;;;;;;;;;;767211;180;920359;-72
2023/02/23 00:41:51;;;;;;;52.10;22.70;;;;;;;;;;765030;182;820275;-71
2023/02/23 00:44:15;;;;;;;38.80;23.90;;;;;;;;;;771003;180;818886;-68
2023/02/23 00:46:42;;;;;;;41.37;26.47;;;;;;;;;;767360;181;912127;-71
2023/02/23 00:49:07;;;;;;;35.92;23.55;;;;;;;;;;765585;181;923527;-72
2023/02/23 00:51:32;;;;;;;42.33;23.80;;;;;;;;;;771578;180;920912;-71
2023/02/23 00:53:58;;;;;;;33.93;20.40;;;;;;;;;;768446;182;919022;-68
2023/02/23 00:56:24;;;;;;;42.95;23.85;;;;;;;;;;775271;182;823061;-68
2023/02/23 00:58:50;;;;;;;47.77;23.97;;;;;;;;;;768118;182;918862;-68
2023/02/23 01:01:16;;;;;;;48.00;25.27;;;;;;;;;;768277;181;918941;-68
2023/02/23 01:03:42;;;;;;;48.67;25.87;;;;;;;;;;773651;182;806970;-68
2023/02/23 01:06:08;;;;;;;41.93;22.80;;;;;;;;;;772156;181;816815;-68
2023/02/23 01:08:33;;;;;;;31.63;20.63;;;;;;;;;;770218;181;919071;-68
2023/02/23 01:11:00;;;;;;;38.47;21.98;;;;;;;;;;774928;181;917280;-70
2023/02/23 01:13:26;;;;;;;39.73;20.17;;;;;;;;;;778456;178;916234;-70
2023/02/23 01:15:51;;;;;;;41.50;20.00;;;;;;;;;;771160;179;918088;-70
2023/02/23 01:18:17;;;;;;;36.00;23.07;;;;;;;;;;772536;181;943459;-68
2023/02/23 01:20:43;;;;;;;36.70;20.33;;;;;;;;;;777213;181;920463;-70
2023/02/23 01:23:09;;;;;;;39.33;22.58;;;;;;;;;;772445;181;919596;-70
2023/02/23 01:25:35;;;;;;;37.47;21.10;;;;;;;;;;768260;180;920434;-68
2023/02/23 01:28:00;;;;;;;33.17;20.13;;;;;;;;;;772720;182;919195;-67
2023/02/23 01:30:26;;;;;;;28.05;19.15;;;;;;;;;;767397;182;919150;-71
2023/02/23 01:32:52;;;;;;;33.38;19.40;;;;;;;;;;768487;182;918640;-71
2023/02/23 01:35:18;;;;;;;35.10;20.30;;;;;;;;;;772194;181;918797;-67
2023/02/23 01:37:44;;;;;;;30.23;17.37;;;;;;;;;;764130;182;921323;-69
2023/02/23 01:40:14;;;;;;;37.60;19.40;;;;;;;;;;765312;181;916087;-72
2023/02/23 01:42:38;;;;;;;30.77;19.73;;;;;;;;;;771150;180;919035;-70
2023/02/23 01:45:10;;;;;;;43.40;18.57;;;;;;;;;;786454;181;26519;-69
2023/02/23 01:47:36;;;;;;;39.73;22.20;;;;;;;;;;764357;182;918826;-66
2023/02/23 01:50:02;;;;;;;39.67;19.93;;;;;;;;;;769983;181;919613;-67
2023/02/23 01:52:27;;;;;;;28.30;18.73;;;;;;;;;;769827;180;815557;-67
2023/02/23 01:54:53;;;;;;;34.13;19.70;;;;;;;;;;774351;183;918020;-69
2023/02/23 01:57:19;;;;;;;31.70;17.80;;;;;;;;;;767015;181;914859;-69
2023/02/23 01:59:45;;;;;;;34.35;19.62;;;;;;;;;;771085;181;918201;-67
2023/02/23 02:02:12;;;;;;;28.40;17.37;;;;;;;;;;776963;181;857486;-67
2023/02/23 02:04:45;;;;;;;27.73;16.13;;;;;;;;;;776884;180;914955;-68
2023/02/23 02:07:13;;;;;;;30.20;18.37;;;;;;;;;;779576;181;920316;-65
2023/02/23 02:09:39;;;;;;;26.33;16.50;;;;;;;;;;764154;181;919229;-67
2023/02/23 02:12:07;;;;;;;31.17;18.30;;;;;;;;;;778549;179;918559;-66
2023/02/23 02:14:29;;;;;;;28.37;17.20;;;;;;;;;;774529;180;919103;-68
2023/02/23 02:17:10;;;;;;;30.90;14.93;;;;;;;;;;763622;179;917309;-68
2023/02/23 02:19:39;;;;;;;39.47;17.73;;;;;;;;;;745927;184;918950;-67
2023/02/23 02:22:09;;;;;;;36.10;17.00;;;;;;;;;;772355;180;918976;-66
2023/02/23 02:24:41;;;;;;;28.67;17.27;;;;;;;;;;769160;181;928295;-68
2023/02/23 02:27:13;;;;;;;31.07;17.20;;;;;;;;;;773160;181;919310;-66
2023/02/23 02:29:41;;;;;;;25.65;16.12;;;;;;;;;;772385;181;916957;-66
2023/02/23 02:32:11;;;;;;;29.97;18.70;;;;;;;;;;767262;182;920480;-66
2023/02/23 02:34:41;;;;;;;26.50;16.93;;;;;;;;;;768717;180;818492;-68
2023/02/23 02:37:12;;;;;;;31.30;16.00;;;;;;;;;;768379;180;912768;-68
2023/02/23 02:39:38;;;;;;;25.90;15.43;;;;;;;;;;764410;181;913101;-70
2023/02/23 02:42:06;;;;;;;27.80;15.70;;;;;;;;;;762536;180;920938;-69
2023/02/23 02:44:32;;;;;;;24.20;15.63;;;;;;;;;;771761;181;916853;-66
2023/02/23 02:46:58;;;;;;;31.83;15.45;;;;;;;;;;767043;181;916622;-68
2023/02/23 02:49:25;;;;;;;33.47;15.83;;;;;;;;;;767873;181;917506;-66
2023/02/23 02:51:55;;;;;;;24.70;16.85;;;;;;;;;;771375;181;918897;-68
2023/02/23 02:54:23;;;;;;;31.13;16.90;;;;;;;;;;772984;181;819986;-68
2023/02/23 02:56:49;;;;;;;29.17;18.20;;;;;;;;;;768400;181;924880;-66
2023/02/23 04:18:08;;;;;;;34.90;22.10;;;;;;;;;;768750;180;919096;-68
2023/02/23 04:20:34;;;;;;;27.47;18.13;;;;;;;;;;766998;181;917591;-67
2023/02/23 04:23:00;;;;;;;46.93;24.60;;;;;;;;;;771716;181;881022;-70
2023/02/23 04:25:27;;;;;;;40.07;23.83;;;;;;;;;;781836;179;883998;-70
2023/02/23 04:27:52;;;;;;;42.30;21.80;;;;;;;;;;769152;180;909323;-70
2023/02/23 04:30:19;;;;;;;42.67;20.53;;;;;;;;;;772103;179;921692;-67
2023/02/23 04:32:44;;;;;;;42.90;22.80;;;;;;;;;;777567;179;874166;-67
2023/02/23 04:35:09;;;;;;;44.23;23.63;;;;;;;;;;773255;181;919543;-70
2023/02/23 04:37:35;;;;;;;49.30;23.73;;;;;;;;;;774246;180;894852;-70
2023/02/23 04:40:01;;;;;;;53.23;22.63;;;;;;;;;;776058;180;914071;-71
2023/02/23 04:42:27;;;;;;;41.57;23.27;;;;;;;;;;774470;180;924380;-66
2023/02/23 04:44:53;;;;;;;56.47;28.70;;;;;;;;;;767632;180;918821;-67
2023/02/23 04:47:20;;;;;;;41.37;25.52;;;;;;;;;;775336;180;1021000;-70
2023/02/23 04:49:45;;;;;;;46.60;25.00;;;;;;;;;;760999;182;919528;-71
2023/02/23 04:52:11;;;;;;;50.13;25.87;;;;;;;;;;770093;181;919349;-66
2023/02/23 04:54:38;;;;;;;64.05;27.77;;;;;;;;;;769032;181;1021385;-71
2023/02/23 04:57:03;;;;;;;60.10;29.33;;;;;;;;;;774837;181;919135;-66
2023/02/23 04:59:29;;;;;;;64.37;28.50;;;;;;;;;;771991;181;917829;-72
2023/02/23 05:01:55;;;;;;;58.42;28.87;;;;;;;;;;771271;180;919201;-71
2023/02/23 05:04:21;;;;;;;54.80;27.20;;;;;;;;;;775453;181;926905;-67
2023/02/23 05:06:47;;;;;;;71.13;30.30;;;;;;;;;;771153;180;865400;-67
2023/02/23 05:09:12;;;;;;;53.93;28.20;;;;;;;;;;767254;181;921180;-68
2023/02/23 05:11:38;;;;;;;60.60;31.87;;;;;;;;;;774744;180;894687;-67
2023/02/23 05:14:04;;;;;;;57.83;29.10;;;;;;;;;;765016;181;921420;-67
2023/02/23 05:16:30;;;;;;;65.87;29.53;;;;;;;;;;772753;180;917070;-67
2023/02/23 05:18:56;;;;;;;51.97;28.83;;;;;;;;;;771272;180;918928;-67
2023/02/23 05:21:22;;;;;;;53.00;29.07;;;;;;;;;;774952;181;919590;-74
2023/02/23 05:23:47;;;;;;;56.03;29.87;;;;;;;;;;772425;181;917912;-72
2023/02/23 05:26:13;;;;;;;56.10;28.53;;;;;;;;;;767761;181;912309;-69
2023/02/23 05:28:39;;;;;;;68.20;27.97;;;;;;;;;;771430;179;942701;-67
2023/02/23 05:31:05;;;;;;;58.20;26.13;;;;;;;;;;766087;181;909328;-68
2023/02/23 05:33:31;;;;;;;48.50;26.93;;;;;;;;;;769014;180;915272;-73
2023/02/23 05:35:57;;;;;;;52.30;26.80;;;;;;;;;;777805;180;913810;-73
2023/02/23 05:38:22;;;;;;;59.30;28.90;;;;;;;;;;771852;179;917823;-67
2023/02/23 05:40:48;;;;;;;59.00;28.50;;;;;;;;;;769876;180;918892;-67
2023/02/23 05:43:14;;;;;;;55.97;29.70;;;;;;;;;;774688;180;916298;-66
2023/02/23 05:45:40;;;;;;;64.83;32.20;;;;;;;;;;782450;178;919704;-75
2023/02/23 05:48:06;;;;;;;59.73;30.37;;;;;;;;;;768548;181;918599;-67
2023/02/23 05:50:32;;;;;;;66.00;33.77;;;;;;;;;;771546;181;919209;-67
2023/02/23 05:52:58;;;;;;;67.03;32.63;;;;;;;;;;775145;180;816018;-67
2023/02/23 05:55:24;;;;;;;56.27;29.87;;;;;;;;;;776115;181;820512;-73
2023/02/23 05:57:49;;;;;;;54.87;29.40;;;;;;;;;;774476;180;917669;-73
2023/02/23 06:00:15;;;;;;;55.23;31.13;;;;;;;;;;774063;180;918227;-74
2023/02/23 06:02:41;;;;;;;60.03;32.90;;;;;;;;;;772379;181;733185;-66
2023/02/23 06:05:07;;;;;;;50.23;30.90;;;;;;;;;;768309;180;916558;-66
2023/02/23 06:07:33;;;;;;;68.97;32.73;;;;;;;;;;767072;180;818326;-72
2023/02/23 06:09:59;;;;;;;53.97;29.63;;;;;;;;;;758138;183;923819;-73
2023/02/23 06:12:25;;;;;;;61.00;31.03;;;;;;;;;;762653;180;917447;-73
2023/02/23 06:14:51;;;;;;;67.93;38.20;;;;;;;;;;768139;181;912684;-66
2023/02/23 06:17:17;;;;;;;76.10;39.67;;;;;;;;;;774953;182;919093;-69
2023/02/23 06:19:43;;;;;;;66.33;34.63;;;;;;;;;;775428;180;920373;-66
2023/02/23 06:22:08;;;;;;;64.10;38.63;;;;;;;;;;770417;181;918555;-72
2023/02/23 06:24:34;;;;;;;75.13;37.50;;;;;;;;;;768496;182;918355;-74
2023/02/23 06:27:00;;;;;;;80.30;38.00;;;;;;;;;;766201;180;923566;-73
2023/02/23 06:29:26;;;;;;;68.17;37.60;;;;;;;;;;767702;180;1118192;-75
2023/02/23 06:31:52;;;;;;;61.10;36.80;;;;;;;;;;776359;181;919574;-66
2023/02/23 06:34:18;;;;;;;77.10;38.03;;;;;;;;;;770185;181;851404;-65
2023/02/23 06:36:43;;;;;;;62.10;33.50;;;;;;;;;;769402;180;939197;-66
2023/02/23 06:39:09;;;;;;;73.60;36.20;;;;;;;;;;767401;181;920675;-66
2023/02/23 06:41:35;;;;;;;111.90;54.27;;;;;;;;;;777115;181;964876;-72
2023/02/23 06:44:01;;;;;;;398.58;193.43;;;;;;;;;;772460;181;921866;-72
2023/02/23 06:46:27;;;;;;;108.37;51.13;;;;;;;;;;773788;181;821559;-72
2023/02/23 06:48:54;;;;;;;96.60;47.03;;;;;;;;;;777060;180;920706;-67
2023/02/23 06:51:19;;;;;;;113.00;51.17;;;;;;;;;;772730;180;816133;-67
2023/02/23 06:53:45;;;;;;;127.00;52.00;;;;;;;;;;769638;180;918118;-66
2023/02/23 06:56:12;;;;;;;112.18;47.00;;;;;;;;;;772241;182;922064;-67
2023/02/23 06:58:37;;;;;;;175.93;76.07;;;;;;;;;;773230;180;920309;-72
2023/02/23 07:01:03;;;;;;;160.80;71.10;;;;;;;;;;774159;180;922295;-67
2023/02/23 07:03:29;;;;;;;122.27;50.87;;;;;;;;;;770213;181;918850;-67
2023/02/23 07:05:54;;;;;;;119.17;50.33;;;;;;;;;;776693;180;909630;-66
2023/02/23 07:08:20;;;;;;;116.60;51.10;;;;;;;;;;774269;180;912814;-67
2023/02/23 07:10:46;;;;;;;123.63;53.37;;;;;;;;;;770491;181;918751;-73
2023/02/23 07:13:12;;;;;;;94.77;40.87;;;;;;;;;;775488;181;918668;-72
2023/02/23 07:15:38;;;;;;;72.60;38.03;;;;;;;;;;772954;180;916185;-67
2023/02/23 07:18:04;;;;;;;108.80;47.45;;;;;;;;;;769014;180;1024192;-73
2023/02/23 07:20:30;;;;;;;107.30;46.90;;;;;;;;;;776010;180;921926;-67
2023/02/23 07:22:55;;;;;;;96.60;43.17;;;;;;;;;;762862;181;922546;-73
2023/02/23 07:25:21;;;;;;;54.97;29.30;;;;;;;;;;771374;181;922267;-66
2023/02/23 07:27:47;;;;;;;82.30;36.77;;;;;;;;;;763496;182;890616;-73
2023/02/23 07:30:13;;;;;;;69.53;36.53;;;;;;;;;;773826;182;918339;-73
2023/02/23 07:32:39;;;;;;;74.27;35.80;;;;;;;;;;770544;181;919085;-74
2023/02/23 07:35:05;;;;;;;64.10;32.33;;;;;;;;;;770941;179;812409;-73
2023/02/23 07:37:31;;;;;;;72.77;35.83;;;;;;;;;;778637;181;635646;-67
2023/02/23 07:39:57;;;;;;;65.28;34.15;;;;;;;;;;768746;181;917155;-67
2023/02/23 07:42:23;;;;;;;63.67;33.65;;;;;;;;;;769657;181;920063;-73
2023/02/23 07:44:49;;;;;;;173.77;64.67;;;;;;;;;;773047;179;919265;-67
2023/02/23 07:47:14;;;;;;;82.40;42.10;;;;;;;;;;769682;181;917699;-67
2023/02/23 07:49:41;;;;;;;54.57;32.30;;;;;;;;;;770590;179;918842;-67
2023/02/23 07:52:06;;;;;;;60.23;36.30;;;;;;;;;;766519;182;920200;-73
2023/02/23 07:54:33;;;;;;;76.93;40.67;;;;;;;;;;758811;183;921968;-66
2023/02/23 07:56:59;;;;;;;64.27;32.43;;;;;;;;;;755716;182;916155;-67
2023/02/23 07:59:24;;;;;;;67.97;35.97;;;;;;;;;;768715;182;915225;-73
2023/02/23 08:01:51;;;;;;;92.97;52.60;;;;;;;;;;779251;179;918742;-67
2023/02/23 08:04:16;;;;;;;87.30;46.40;;;;;;;;;;771616;180;916486;-67
2023/02/23 08:06:42;;;;;;;79.73;39.10;;;;;;;;;;772612;180;939584;-67
2023/02/23 08:09:09;;;;;;;69.27;38.17;;;;;;;;;;777290;181;1018356;-73
2023/02/23 08:11:34;;;;;;;72.27;38.30;;;;;;;;;;775254;180;859695;-74
2023/02/23 08:13:59;;;;;;;72.77;40.87;;;;;;;;;;770675;180;906160;-66
2023/02/23 08:16:25;;;;;;;68.70;35.80;;;;;;;;;;774484;181;818544;-73
2023/02/23 08:18:51;;;;;;;56.63;30.87;;;;;;;;;;771887;180;918561;-67
2023/02/23 08:21:17;;;;;;;66.37;31.53;;;;;;;;;;770075;180;922526;-67
2023/02/23 08:23:43;;;;;;;52.93;29.53;;;;;;;;;;767179;180;910322;-67
2023/02/23 08:26:09;;;;;;;48.93;27.47;;;;;;;;;;774571;180;918285;-67
2023/02/23 08:28:35;;;;;;;50.20;26.07;;;;;;;;;;773307;180;920582;-67
2023/02/23 08:31:00;;;;;;;44.90;24.97;;;;;;;;;;771799;181;818029;-74
2023/02/23 08:33:26;;;;;;;59.93;28.57;;;;;;;;;;778535;180;809615;-67
2023/02/23 08:35:52;;;;;;;55.43;28.40;;;;;;;;;;768309;181;919280;-76
2023/02/23 08:38:18;;;;;;;60.77;32.93;;;;;;;;;;769419;181;1020986;-76
2023/02/23 08:40:44;;;;;;;55.27;29.27;;;;;;;;;;774551;181;916880;-73
2023/02/23 08:43:10;;;;;;;60.67;28.60;;;;;;;;;;770977;181;855144;-74
2023/02/23 08:45:36;;;;;;;46.10;24.97;;;;;;;;;;769755;180;911929;-75
2023/02/23 08:48:01;;;;;;;57.60;28.57;;;;;;;;;;770768;181;920964;-67
2023/02/23 08:50:27;;;;;;;47.33;25.93;;;;;;;;;;772263;179;816241;-67
2023/02/23 08:52:53;;;;;;;57.13;26.92;;;;;;;;;;767867;181;917632;-74
2023/02/23 08:55:20;;;;;;;79.73;48.43;;;;;;;;;;768098;181;885888;-67
2023/02/23 08:57:45;;;;;;;54.43;29.40;;;;;;;;;;775626;180;910049;-66
2023/02/23 09:00:15;;;;;;;51.90;29.10;;;;;;;;;;768395;180;916850;-66
2023/02/23 09:02:37;;;;;;;56.53;35.60;;;;;;;;;;771354;181;915373;-74
2023/02/23 09:05:03;;;;;;;64.10;38.10;;;;;;;;;;775043;180;922315;-67
2023/02/23 09:07:29;;;;;;;55.00;29.07;;;;;;;;;;773543;181;915497;-66
2023/02/23 09:09:55;;;;;;;54.63;30.13;;;;;;;;;;771529;180;918474;-67
2023/02/23 09:12:21;;;;;;;59.63;30.33;;;;;;;;;;769927;179;919993;-67
2023/02/23 09:14:46;;;;;;;54.05;31.17;;;;;;;;;;775185;178;920638;-67
2023/02/23 09:17:12;;;;;;;55.77;31.03;;;;;;;;;;772060;181;918793;-74
2023/02/23 09:19:38;;;;;;;57.37;34.27;;;;;;;;;;770932;180;918968;-67
2023/02/23 09:22:04;;;;;;;57.93;32.93;;;;;;;;;;777942;181;919680;-67
2023/02/23 09:24:31;;;;;;;91.57;48.63;;;;;;;;;;768073;181;1021969;-67
2023/02/23 09:26:56;;;;;;;70.15;35.33;;;;;;;;;;772239;180;905766;-67
2023/02/23 09:29:21;;;;;;;132.13;57.57;;;;;;;;;;779178;181;918222;-67
2023/02/23 09:31:50;;;;;;;87.13;39.67;;;;;;;;;;772695;180;917558;-67
2023/02/23 09:34:14;;;;;;;69.07;38.93;;;;;;;;;;766612;181;916893;-76
2023/02/23 09:36:39;;;;;;;68.80;36.97;;;;;;;;;;775336;182;916520;-75
2023/02/23 09:39:05;;;;;;;75.40;39.37;;;;;;;;;;771778;181;918370;-67
2023/02/23 09:41:32;;;;;;;82.03;40.03;;;;;;;;;;768461;179;960830;-74
2023/02/23 09:43:58;;;;;;;98.22;47.95;;;;;;;;;;774895;180;918372;-74
2023/02/23 09:46:44;;;;;;;65.17;37.17;;;;;;;;;;767366;180;917194;-74
2023/02/23 09:49:11;;;;;;;80.00;36.63;;;;;;;;;;757354;185;919609;-67
2023/02/23 09:51:36;;;;;;;65.23;36.17;;;;;;;;;;765551;183;822895;-74
2023/02/23 09:54:01;;;;;;;76.63;31.00;;;;;;;;;;766251;180;919281;-75
2023/02/23 09:56:28;;;;;;;79.43;42.70;;;;;;;;;;769004;183;913547;-67
2023/02/23 09:58:54;;;;;;;52.40;29.30;;;;;;;;;;763236;182;918960;-74
2023/02/23 10:01:21;;;;;;;82.13;45.27;;;;;;;;;;764218;180;918331;-67
2023/02/23 10:03:47;;;;;;;61.30;34.53;;;;;;;;;;772674;180;931292;-75
2023/02/23 10:06:13;;;;;;;87.07;47.27;;;;;;;;;;773811;181;919267;-74
2023/02/23 10:08:39;;;;;;;50.27;29.83;;;;;;;;;;771659;180;915729;-67
2023/02/23 10:11:06;;;;;;;52.97;33.63;;;;;;;;;;764325;182;920197;-75
2023/02/23 10:13:31;;;;;;;46.03;27.07;;;;;;;;;;770108;177;920546;-66
2023/02/23 10:15:57;;;;;;;46.80;24.20;;;;;;;;;;761066;182;956668;-74
2023/02/23 10:18:28;;;;;;;43.73;23.37;;;;;;;;;;776745;180;815228;-75
2023/02/23 10:20:53;;;;;;;43.73;24.97;;;;;;;;;;768885;181;919955;-74
2023/02/23 10:23:19;;;;;;;39.47;24.60;;;;;;;;;;774540;178;930295;-76
2023/02/23 10:25:44;;;;;;;45.87;24.80;;;;;;;;;;767196;181;915866;-74
2023/02/23 10:28:11;;;;;;;37.40;21.50;;;;;;;;;;776011;180;825234;-67
2023/02/23 10:30:37;;;;;;;38.03;21.30;;;;;;;;;;770493;181;815711;-75
2023/02/23 10:33:04;;;;;;;33.90;20.60;;;;;;;;;;763088;180;1020608;-67
2023/02/23 10:35:30;;;;;;;34.10;20.90;;;;;;;;;;761249;180;917060;-67
2023/02/23 10:37:55;;;;;;;42.20;20.87;;;;;;;;;;764508;184;921800;-67
2023/02/23 10:40:21;;;;;;;33.80;20.70;;;;;;;;;;772100;181;918114;-66
2023/02/23 10:42:47;;;;;;;34.00;19.00;;;;;;;;;;770893;179;936989;-75
2023/02/23 10:45:17;;;;;;;35.93;18.60;;;;;;;;;;768483;181;918543;-67
2023/02/23 10:47:40;;;;;;;26.47;16.73;;;;;;;;;;777594;181;918661;-73
2023/02/23 10:50:06;;;;;;;20.73;14.27;;;;;;;;;;766815;180;918427;-74
2023/02/23 10:52:33;;;;;;;23.10;15.43;;;;;;;;;;774252;181;918762;-67
2023/02/23 10:54:59;;;;;;;22.33;15.77;;;;;;;;;;769426;181;1013635;-75
2023/02/23 10:57:25;;;;;;;23.33;14.67;;;;;;;;;;764385;182;920057;-74
2023/02/23 10:59:58;;;;;;;22.23;15.27;;;;;;;;;;765229;181;919274;-75
2023/02/23 11:02:24;;;;;;;22.75;14.07;;;;;;;;;;763142;183;918757;-66
2023/02/23 11:04:51;;;;;;;21.47;14.33;;;;;;;;;;774626;181;918398;-76
2023/02/23 11:07:17;;;;;;;21.60;13.07;;;;;;;;;;767769;181;918131;-66
2023/02/23 11:09:43;;;;;;;18.80;12.87;;;;;;;;;;764944;180;919057;-66
2023/02/23 11:12:24;;;;;;;20.33;14.23;;;;;;;;;;771821;182;916214;-66
2023/02/23 11:14:49;;;;;;;19.63;12.87;;;;;;;;;;766879;184;923270;-75
2023/02/23 11:17:29;;;;;;;23.80;13.43;;;;;;;;;;773181;181;918526;-66
2023/02/23 11:19:57;;;;;;;22.90;14.40;;;;;;;;;;773486;181;881766;-66
2023/02/23 11:22:25;;;;;;;21.07;13.00;;;;;;;;;;773580;181;816810;-66
2023/02/23 11:24:49;;;;;;;20.23;12.27;;;;;;;;;;773796;179;918571;-75
2023/02/23 11:27:18;;;;;;;20.00;13.00;;;;;;;;;;769034;180;920749;-66
2023/02/23 11:29:43;;;;;;;18.93;11.53;;;;;;;;;;772264;180;918052;-74
2023/02/23 11:32:12;;;;;;;17.15;12.20;;;;;;;;;;771621;179;915818;-66
2023/02/23 11:34:39;;;;;;;16.33;11.53;;;;;;;;;;775653;181;912454;-75
2023/02/23 11:37:01;;;;;;;19.37;13.43;;;;;;;;;;770302;181;924243;-66
2023/02/23 11:39:26;;;;;;;21.13;14.80;;;;;;;;;;769331;180;1020221;-75
2023/02/23 11:41:56;;;;;;;20.27;13.00;;;;;;;;;;777131;181;886429;-66
2023/02/23 11:44:22;;;;;;;21.27;12.97;;;;;;;;;;768172;180;1023528;-67
2023/02/23 11:46:48;;;;;;;24.10;13.10;;;;;;;;;;764238;183;919721;-75
2023/02/23 11:49:14;;;;;;;23.60;14.00;;;;;;;;;;766315;181;919109;-67
2023/02/23 11:51:40;;;;;;;23.30;13.07;;;;;;;;;;774218;181;919486;-67
2023/02/23 11:54:06;;;;;;;19.23;13.90;;;;;;;;;;767988;179;917742;-68
2023/02/23 11:56:31;;;;;;;17.60;11.90;;;;;;;;;;769967;181;914034;-75
2023/02/23 11:58:57;;;;;;;17.80;12.23;;;;;;;;;;776032;181;919083;-67
2023/02/23 12:01:23;;;;;;;17.67;11.43;;;;;;;;;;769125;182;919177;-67
2023/02/23 12:03:50;;;;;;;23.27;14.40;;;;;;;;;;768373;182;917588;-76
2023/02/23 12:06:23;;;;;;;16.63;11.63;;;;;;;;;;777994;181;816189;-67
2023/02/23 12:08:47;;;;;;;24.93;13.37;;;;;;;;;;776507;181;918083;-76
2023/02/23 12:11:13;;;;;;;18.33;12.93;;;;;;;;;;771479;179;919851;-66
2023/02/23 12:13:41;;;;;;;18.15;12.48;;;;;;;;;;772799;179;919057;-76
2023/02/23 12:16:10;;;;;;;17.30;12.60;;;;;;;;;;773324;181;918730;-76
2023/02/23 12:18:37;;;;;;;20.73;12.33;;;;;;;;;;768121;181;920107;-67
2023/02/23 12:21:04;;;;;;;15.27;11.83;;;;;;;;;;772163;180;915183;-76
2023/02/23 12:23:31;;;;;;;20.07;11.80;;;;;;;;;;770041;180;918483;-67
2023/02/23 12:25:56;;;;;;;19.13;10.93;;;;;;;;;;775027;181;918999;-68
2023/02/23 12:28:25;;;;;;;19.20;12.27;;;;;;;;;;772228;181;942754;-68
2023/02/23 12:30:49;;;;;;;12.13;8.27;;;;;;;;;;773850;180;915803;-67
2023/02/23 12:33:15;;;;;;;12.00;9.03;;;;;;;;;;777321;180;919063;-76
2023/02/23 12:35:41;;;;;;;13.03;8.83;;;;;;;;;;771007;181;920534;-76
2023/02/23 12:38:10;;;;;;;10.47;8.00;;;;;;;;;;766081;181;908769;-76
2023/02/23 12:40:37;;;;;;;14.50;8.88;;;;;;;;;;765564;181;921378;-67
2023/02/23 12:43:05;;;;;;;17.60;10.27;;;;;;;;;;773993;179;817310;-67
2023/02/23 12:45:31;;;;;;;16.40;9.87;;;;;;;;;;765402;181;919079;-77
2023/02/23 12:48:00;;;;;;;13.93;9.02;;;;;;;;;;771998;180;925334;-76
2023/02/23 12:50:27;;;;;;;16.97;11.60;;;;;;;;;;777479;181;920180;-78
2023/02/23 12:52:54;;;;;;;14.10;9.40;;;;;;;;;;773274;181;1020294;-67
2023/02/23 12:55:19;;;;;;;11.80;9.50;;;;;;;;;;769430;181;920000;-77
2023/02/23 12:57:48;;;;;;;13.70;8.13;;;;;;;;;;764781;180;815872;-67
2023/02/23 13:00:22;;;;;;;14.93;8.60;;;;;;;;;;772056;181;817886;-77
2023/02/23 13:02:45;;;;;;;17.87;8.50;;;;;;;;;;772054;181;910703;-77
2023/02/23 13:05:28;;;;;;;17.53;9.90;;;;;;;;;;767394;181;919450;-67
2023/02/23 13:07:56;;;;;;;11.70;8.53;;;;;;;;;;770013;181;918636;-66
2023/02/23 13:10:25;;;;;;;17.87;9.50;;;;;;;;;;769838;181;1020771;-77
2023/02/23 13:12:52;;;;;;;12.20;9.20;;;;;;;;;;776971;182;813089;-77
2023/02/23 13:15:23;;;;;;;16.93;10.50;;;;;;;;;;773660;180;917920;-67
2023/02/23 13:17:49;;;;;;;14.53;8.73;;;;;;;;;;770047;182;919537;-67
2023/02/23 13:20:20;;;;;;;14.10;9.60;;;;;;;;;;771458;181;919200;-67
2023/02/23 13:22:49;;;;;;;16.83;10.63;;;;;;;;;;773643;182;917183;-72
2023/02/23 13:25:16;;;;;;;14.30;9.10;;;;;;;;;;776211;181;845180;-76
2023/02/23 13:27:41;;;;;;;11.37;8.37;;;;;;;;;;775023;181;848400;-67
2023/02/23 13:30:09;;;;;;;14.23;9.97;;;;;;;;;;778208;181;925776;-77
2023/02/23 13:32:36;;;;;;;16.30;9.40;;;;;;;;;;767237;181;1020805;-76
2023/02/23 13:35:02;;;;;;;14.33;9.77;;;;;;;;;;769121;180;919681;-77
2023/02/23 13:37:27;;;;;;;17.73;9.52;;;;;;;;;;768318;181;1002688;-68
2023/02/23 13:39:54;;;;;;;13.67;9.10;;;;;;;;;;776622;179;854037;-67
2023/02/23 13:42:24;;;;;;;18.50;10.13;;;;;;;;;;771672;181;934297;-66
2023/02/23 13:45:05;;;;;;;19.17;10.60;;;;;;;;;;771469;180;922281;-76
2023/02/23 13:47:35;;;;;;;16.80;10.45;;;;;;;;;;762902;181;919318;-68
2023/02/23 13:50:04;;;;;;;17.13;8.80;;;;;;;;;;766633;181;816616;-77
2023/02/23 13:52:40;;;;;;;15.63;10.07;;;;;;;;;;774413;181;816307;-78
2023/02/23 13:55:11;;;;;;;18.67;9.60;;;;;;;;;;769647;182;917851;-77
2023/02/23 13:57:37;;;;;;;15.27;10.17;;;;;;;;;;768831;181;916608;-77
2023/02/23 14:00:03;;;;;;;19.57;10.50;;;;;;;;;;771237;179;917193;-77
2023/02/23 14:02:32;;;;;;;17.93;11.37;;;;;;;;;;777226;180;918471;-68
2023/02/23 14:04:56;;;;;;;15.90;10.40;;;;;;;;;;772318;179;898711;-77
2023/02/23 14:07:23;;;;;;;14.87;10.98;;;;;;;;;;771012;180;915441;-77
2023/02/23 14:09:49;;;;;;;20.30;12.40;;;;;;;;;;768821;180;906181;-68
2023/02/23 14:12:18;;;;;;;15.43;10.87;;;;;;;;;;762140;183;915718;-78
2023/02/23 14:14:43;;;;;;;19.73;10.83;;;;;;;;;;773297;180;817582;-77
2023/02/23 14:17:09;;;;;;;17.97;11.43;;;;;;;;;;770782;180;1024048;-76
2023/02/23 14:19:35;;;;;;;17.58;11.52;;;;;;;;;;774621;181;918575;-77
2023/02/23 14:22:01;;;;;;;22.60;11.37;;;;;;;;;;770217;181;916378;-78
2023/02/23 14:24:27;;;;;;;19.77;10.70;;;;;;;;;;770633;180;918959;-68
2023/02/23 14:26:59;;;;;;;14.60;10.03;;;;;;;;;;775477;181;819797;-77
2023/02/23 14:29:25;;;;;;;17.93;11.47;;;;;;;;;;769879;180;919214;-77
2023/02/23 14:32:03;;;;;;;20.90;11.20;;;;;;;;;;767801;180;918917;-77
2023/02/23 14:34:46;;;;;;;23.03;11.83;;;;;;;;;;765824;179;816310;-77
2023/02/23 14:37:26;;;;;;;18.73;11.00;;;;;;;;;;771246;179;919551;-68
2023/02/23 14:39:52;;;;;;;19.03;11.20;;;;;;;;;;770635;180;917736;-78
2023/02/23 14:42:18;;;;;;;18.00;11.77;;;;;;;;;;767871;180;1016339;-68
2023/02/23 14:44:45;;;;;;;20.93;11.17;;;;;;;;;;774604;181;920375;-77
2023/02/23 14:47:10;;;;;;;15.97;10.53;;;;;;;;;;772588;180;918372;-77
2023/02/23 14:49:39;;;;;;;15.73;10.43;;;;;;;;;;768733;181;918662;-78
2023/02/23 14:52:04;;;;;;;16.63;10.60;;;;;;;;;;772809;181;918268;-77
2023/02/23 14:54:32;;;;;;;16.43;11.37;;;;;;;;;;771709;179;897110;-67
2023/02/23 14:56:57;;;;;;;27.77;12.20;;;;;;;;;;769746;181;886357;-66
2023/02/23 14:59:25;;;;;;;21.23;11.80;;;;;;;;;;770408;181;921669;-76
2023/02/23 15:01:49;;;;;;;14.70;10.33;;;;;;;;;;771632;179;882879;-67
2023/02/23 15:04:15;;;;;;;19.33;11.17;;;;;;;;;;766429;180;919289;-77
2023/02/23 15:06:41;;;;;;;19.80;11.47;;;;;;;;;;770358;180;991155;-68
2023/02/23 15:09:08;;;;;;;22.07;11.33;;;;;;;;;;775792;180;918866;-76
2023/02/23 15:11:35;;;;;;;21.20;12.50;;;;;;;;;;770244;179;949591;-77
2023/02/23 15:13:59;;;;;;;18.23;11.27;;;;;;;;;;770251;180;918961;-77
2023/02/23 15:16:26;;;;;;;22.63;11.60;;;;;;;;;;777508;180;917570;-77
2023/02/23 15:18:52;;;;;;;17.47;11.90;;;;;;;;;;772281;181;918628;-77